createdAt,value
2018-02-06T00:00:19.728Z,-1.12
2018-02-06T00:01:19.718Z,-1.11
2018-02-06T00:02:19.708Z,-1.19
2018-02-06T00:03:19.697Z,-1.14
2018-02-06T00:04:19.684Z,-1.20
2018-02-06T00:05:19.675Z,-1.12
2018-02-06T00:06:19.666Z,-1.19
2018-02-06T00:07:19.655Z,-1.22
2018-02-06T00:08:19.643Z,-1.22
2018-02-06T00:09:19.632Z,-1.19
2018-02-06T00:10:19.624Z,-1.22
2018-02-06T00:11:19.612Z,-1.08
2018-02-06T00:12:19.602Z,-1.23
2018-02-06T00:13:19.591Z,-1.20
2018-02-06T00:14:19.581Z,-1.09
2018-02-06T00:15:19.570Z,-1.08
2018-02-06T00:16:19.559Z,-1.12
2018-02-06T00:17:19.548Z,-1.14
2018-02-06T00:18:19.538Z,-1.11
2018-02-06T00:19:19.527Z,-1.14
2018-02-06T00:20:19.517Z,-1.09
2018-02-06T00:21:19.507Z,-1.22
2018-02-06T00:22:19.496Z,-1.22
2018-02-06T00:23:19.486Z,-1.12
2018-02-06T00:24:19.475Z,-1.17
2018-02-06T00:25:19.465Z,-1.19
2018-02-06T00:26:19.454Z,-1.07
2018-02-06T00:27:19.442Z,-1.12
2018-02-06T00:28:19.431Z,-1.15
2018-02-06T00:29:19.422Z,-1.07
2018-02-06T00:30:19.412Z,-1.11
2018-02-06T00:31:19.401Z,-1.08
2018-02-06T00:32:19.389Z,-1.17
2018-02-06T00:33:19.380Z,-1.19
2018-02-06T00:34:19.369Z,-1.07
2018-02-06T00:35:19.357Z,-1.22
2018-02-06T00:36:19.346Z,-1.20
2018-02-06T00:37:19.337Z,-1.11
2018-02-06T00:38:19.327Z,-1.07
2018-02-06T00:39:19.315Z,-1.14
2018-02-06T00:40:19.304Z,-1.04
2018-02-06T00:41:19.294Z,-1.08
2018-02-06T00:42:19.283Z,-1.08
2018-02-06T00:43:19.271Z,-1.07
2018-02-06T00:44:19.259Z,-1.12
2018-02-06T00:45:19.250Z,-1.05
2018-02-06T00:46:19.239Z,-1.14
2018-02-06T00:47:19.230Z,-1.12
2018-02-06T00:48:19.217Z,-1.11
2018-02-06T00:49:19.208Z,-1.15
2018-02-06T00:50:19.197Z,-1.09
2018-02-06T00:51:19.185Z,-1.01
2018-02-06T00:52:19.227Z,-1.11
2018-02-06T00:53:19.165Z,-1.11
2018-02-06T00:54:19.153Z,-1.11
2018-02-06T00:55:19.143Z,-1.15
2018-02-06T00:56:19.132Z,-1.20
2018-02-06T00:57:19.125Z,-1.20
2018-02-06T00:58:19.111Z,-1.27
2018-02-06T00:59:19.101Z,-1.26
2018-02-06T01:00:19.089Z,-1.26
2018-02-06T01:01:19.077Z,-1.27
2018-02-06T01:02:19.067Z,-1.30
2018-02-06T01:03:19.057Z,-1.32
2018-02-06T01:04:19.045Z,-1.29
2018-02-06T01:05:19.036Z,-1.30
2018-02-06T01:06:19.024Z,-1.27
2018-02-06T01:07:19.013Z,-1.26
2018-02-06T01:08:19.003Z,-1.26
2018-02-06T01:09:18.992Z,-1.37
2018-02-06T01:10:18.982Z,-1.41
2018-02-06T01:11:18.971Z,-1.40
2018-02-06T01:12:18.959Z,-1.40
2018-02-06T01:13:18.949Z,-1.40
2018-02-06T01:14:18.937Z,-1.37
2018-02-06T01:15:18.927Z,-1.33
2018-02-06T01:16:18.915Z,-1.35
2018-02-06T01:17:18.905Z,-1.35
2018-02-06T01:18:18.895Z,-1.37
2018-02-06T01:19:18.885Z,-1.40
2018-02-06T01:20:18.872Z,-1.50
2018-02-06T01:21:18.862Z,-1.50
2018-02-06T01:22:18.851Z,-1.56
2018-02-06T01:23:18.841Z,-1.58
2018-02-06T01:24:18.830Z,-1.43
2018-02-06T01:25:18.817Z,-1.44
2018-02-06T01:26:18.807Z,-1.48
2018-02-06T01:27:18.798Z,-1.48
2018-02-06T01:28:18.785Z,-1.43
2018-02-06T01:29:18.782Z,-1.43
2018-02-06T01:30:18.764Z,-1.40
2018-02-06T01:31:18.754Z,-1.41
2018-02-06T01:32:18.743Z,-1.37
2018-02-06T01:33:18.731Z,-1.43
2018-02-06T01:34:18.723Z,-1.46
2018-02-06T01:35:18.709Z,-1.40
2018-02-06T01:36:18.699Z,-1.44
2018-02-06T01:37:18.688Z,-1.46
2018-02-06T01:38:18.677Z,-1.41
2018-02-06T01:39:18.667Z,-1.47
2018-02-06T01:40:18.655Z,-1.48
2018-02-06T01:41:18.644Z,-1.56
2018-02-06T01:42:18.632Z,-1.54
2018-02-06T01:43:18.622Z,-1.65
2018-02-06T01:44:18.610Z,-1.58
2018-02-06T01:45:18.600Z,-1.53
2018-02-06T01:46:18.589Z,-1.54
2018-02-06T01:47:18.580Z,-1.59
2018-02-06T01:48:18.567Z,-1.58
2018-02-06T01:49:18.557Z,-1.51
2018-02-06T01:50:18.546Z,-1.54
2018-02-06T01:51:18.536Z,-1.64
2018-02-06T01:52:18.525Z,-1.59
2018-02-06T01:53:18.513Z,-1.58
2018-02-06T01:54:18.502Z,-1.65
2018-02-06T01:55:18.492Z,-1.76
2018-02-06T01:56:18.481Z,-1.65
2018-02-06T01:57:18.469Z,-1.65
2018-02-06T01:58:18.460Z,-1.69
2018-02-06T01:59:18.451Z,-1.59
2018-02-06T02:00:18.437Z,-1.61
2018-02-06T02:01:18.430Z,-1.50
2018-02-06T02:02:18.415Z,-1.58
2018-02-06T02:03:18.404Z,-1.68
2018-02-06T02:04:18.393Z,-1.65
2018-02-06T02:05:18.381Z,-1.66
2018-02-06T02:06:18.370Z,-1.69
2018-02-06T02:07:18.361Z,-1.71
2018-02-06T02:08:18.350Z,-1.76
2018-02-06T02:09:18.337Z,-1.68
2018-02-06T02:10:18.328Z,-1.77
2018-02-06T02:11:18.316Z,-1.87
2018-02-06T02:12:18.304Z,-1.72
2018-02-06T02:13:18.295Z,-1.74
2018-02-06T02:14:18.285Z,-1.79
2018-02-06T02:15:18.278Z,-1.72
2018-02-06T02:16:18.260Z,-1.69
2018-02-06T02:17:18.249Z,-1.69
2018-02-06T02:18:18.239Z,-1.68
2018-02-06T02:19:18.229Z,-1.74
2018-02-06T02:20:18.217Z,-1.69
2018-02-06T02:21:18.206Z,-1.71
2018-02-06T02:22:18.194Z,-1.72
2018-02-06T02:23:18.185Z,-1.69
2018-02-06T02:24:18.172Z,-1.72
2018-02-06T02:25:18.162Z,-1.86
2018-02-06T02:26:18.151Z,-1.84
2018-02-06T02:27:18.140Z,-1.84
2018-02-06T02:28:18.129Z,-1.84
2018-02-06T02:29:18.118Z,-1.89
2018-02-06T02:30:18.106Z,-2.01
2018-02-06T02:31:18.096Z,-1.92
2018-02-06T02:32:18.083Z,-1.87
2018-02-06T02:33:18.072Z,-1.87
2018-02-06T02:34:18.061Z,-1.86
2018-02-06T02:35:18.052Z,-1.86
2018-02-06T02:36:18.039Z,-1.86
2018-02-06T02:37:18.028Z,-1.89
2018-02-06T02:38:18.027Z,-1.87
2018-02-06T02:39:18.006Z,-1.82
2018-02-06T02:40:17.997Z,-1.77
2018-02-06T02:41:17.983Z,-1.86
2018-02-06T04:39:16.653Z,-1.94
2018-02-06T04:40:16.640Z,-1.95
2018-02-06T04:41:16.629Z,-1.98
2018-02-06T04:42:16.618Z,-1.97
2018-02-06T04:43:16.608Z,-2.05
2018-02-06T04:44:16.595Z,-2.05
2018-02-06T04:45:16.583Z,-2.05
2018-02-06T04:46:16.574Z,-2.08
2018-02-06T04:47:16.561Z,-2.19
2018-02-06T04:48:16.548Z,-2.02
2018-02-06T04:49:16.537Z,-2.08
2018-02-06T04:50:16.528Z,-2.02
2018-02-06T04:51:16.514Z,-2.07
2018-02-06T04:52:16.503Z,-2.10
2018-02-06T04:53:16.492Z,-2.05
2018-02-06T04:54:16.480Z,-2.12
2018-02-06T04:55:16.469Z,-2.04
2018-02-06T04:56:16.458Z,-2.08
2018-02-06T04:57:16.447Z,-2.08
2018-02-06T04:58:16.434Z,-2.05
2018-02-06T04:59:16.425Z,-2.07
2018-02-06T05:00:16.413Z,-2.07
2018-02-06T05:01:16.400Z,-2.08
2018-02-06T05:02:16.388Z,-2.01
2018-02-06T05:03:16.377Z,-2.12
2018-02-06T05:04:16.366Z,-1.95
2018-02-06T05:05:16.355Z,-1.98
2018-02-06T05:06:16.343Z,-2.05
2018-02-06T05:07:16.332Z,-1.98
2018-02-06T05:08:16.321Z,-2.00
2018-02-06T05:09:16.308Z,-1.98
2018-02-06T05:10:16.296Z,-2.04
2018-02-06T05:11:16.285Z,-2.01
2018-02-06T05:12:16.273Z,-2.01
2018-02-06T05:13:16.261Z,-2.07
2018-02-06T05:14:16.250Z,-2.07
2018-02-06T05:15:16.239Z,-2.07
2018-02-06T05:16:16.230Z,-2.05
2018-02-06T05:17:16.215Z,-2.10
2018-02-06T05:18:16.205Z,-2.07
2018-02-06T05:19:16.193Z,-2.07
2018-02-06T05:20:16.180Z,-2.10
2018-02-06T05:21:16.176Z,-2.19
2018-02-06T05:22:16.159Z,-2.13
2018-02-06T05:23:16.148Z,-2.10
2018-02-06T05:24:16.137Z,-2.08
2018-02-06T05:25:16.124Z,-2.10
2018-02-06T05:26:16.113Z,-2.08
2018-02-06T05:27:16.101Z,-2.07
2018-02-06T05:28:16.088Z,-2.12
2018-02-06T05:29:16.077Z,-2.13
2018-02-06T05:30:16.067Z,-2.12
2018-02-06T05:31:16.054Z,-2.12
2018-02-06T05:32:16.043Z,-2.18
2018-02-06T05:33:16.031Z,-2.07
2018-02-06T05:34:16.018Z,-2.19
2018-02-06T05:35:16.009Z,-2.12
2018-02-06T05:36:15.997Z,-2.13
2018-02-06T05:37:15.984Z,-2.15
2018-02-06T05:38:15.974Z,-2.13
2018-02-06T05:39:15.963Z,-2.10
2018-02-06T05:40:15.950Z,-2.16
2018-02-06T05:41:15.938Z,-2.16
2018-02-06T05:42:15.927Z,-2.16
2018-02-06T05:43:15.916Z,-2.18
2018-02-06T05:44:15.903Z,-2.16
2018-02-06T05:45:15.892Z,-2.30
2018-02-06T05:46:15.882Z,-2.25
2018-02-06T05:47:15.869Z,-2.28
2018-02-06T05:48:15.857Z,-2.35
2018-02-06T05:49:15.846Z,-2.32
2018-02-06T05:50:15.834Z,-2.22
2018-02-06T05:51:15.823Z,-2.32
2018-02-06T05:52:15.811Z,-2.21
2018-02-06T05:53:15.801Z,-2.37
2018-02-06T05:54:15.789Z,-2.35
2018-02-06T05:55:15.777Z,-2.26
2018-02-06T05:56:15.766Z,-2.28
2018-02-06T05:57:15.755Z,-2.26
2018-02-06T05:58:15.742Z,-2.35
2018-02-06T05:59:15.731Z,-2.47
2018-02-06T06:00:15.720Z,-2.38
2018-02-06T06:01:15.707Z,-2.40
2018-02-06T06:02:15.696Z,-2.40
2018-02-06T06:03:15.686Z,-2.38
2018-02-06T06:04:15.674Z,-2.40
2018-02-06T06:05:15.661Z,-2.41
2018-02-06T06:06:15.650Z,-2.42
2018-02-06T06:07:15.639Z,-2.22
2018-02-06T06:08:15.626Z,-2.40
2018-02-06T06:09:15.615Z,-2.21
2018-02-06T06:10:15.605Z,-2.40
2018-02-06T06:11:15.593Z,-2.42
2018-02-06T06:12:15.580Z,-2.40
2018-02-06T06:13:15.569Z,-2.35
2018-02-06T06:14:15.558Z,-2.26
2018-02-06T06:15:15.548Z,-2.44
2018-02-06T06:16:15.534Z,-2.34
2018-02-06T06:17:15.523Z,-2.40
2018-02-06T06:18:15.512Z,-2.40
2018-02-06T06:19:15.501Z,-2.32
2018-02-06T06:20:15.488Z,-2.41
2018-02-06T06:21:15.478Z,-2.38
2018-02-06T06:22:15.466Z,-2.34
2018-02-06T06:23:15.453Z,-2.41
2018-02-06T06:24:15.442Z,-2.41
2018-02-06T06:25:15.432Z,-2.45
2018-02-06T06:26:15.419Z,-2.38
2018-02-06T06:27:15.408Z,-2.38
2018-02-06T06:28:15.394Z,-2.30
2018-02-06T06:29:15.384Z,-2.40
2018-02-06T06:30:15.372Z,-2.47
2018-02-06T06:31:15.361Z,-2.34
2018-02-06T06:32:15.349Z,-2.40
2018-02-06T06:33:15.337Z,-2.45
2018-02-06T06:34:15.326Z,-2.38
2018-02-06T06:35:15.314Z,-2.42
2018-02-06T06:36:15.302Z,-2.40
2018-02-06T06:37:15.289Z,-2.44
2018-02-06T06:38:15.279Z,-2.26
2018-02-06T06:39:15.267Z,-2.42
2018-02-06T06:40:15.254Z,-2.45
2018-02-06T06:41:15.246Z,-2.38
2018-02-06T06:42:15.231Z,-2.37
2018-02-06T06:43:15.220Z,-2.44
2018-02-06T06:44:15.209Z,-2.38
2018-02-06T06:45:15.198Z,-2.41
2018-02-06T06:46:15.186Z,-2.50
2018-02-06T06:47:15.174Z,-2.48
2018-02-06T06:48:15.163Z,-2.47
2018-02-06T06:49:15.150Z,-2.44
2018-02-06T06:50:15.144Z,-2.50
2018-02-06T06:51:15.126Z,-2.34
2018-02-06T06:52:15.115Z,-2.44
2018-02-06T06:53:15.103Z,-2.47
2018-02-06T06:54:15.092Z,-2.50
2018-02-06T06:55:15.083Z,-2.45
2018-02-06T06:56:15.068Z,-2.38
2018-02-06T06:57:15.059Z,-2.38
2018-02-06T06:58:15.045Z,-2.47
2018-02-06T06:59:15.036Z,-2.41
2018-02-06T07:00:15.021Z,-2.47
2018-02-06T07:01:15.010Z,-2.55
2018-02-06T07:02:14.998Z,-2.42
2018-02-06T07:03:14.989Z,-2.48
2018-02-06T07:04:14.974Z,-2.53
2018-02-06T07:05:14.964Z,-2.44
2018-02-06T07:06:14.951Z,-2.45
2018-02-06T07:07:14.941Z,-2.44
2018-02-06T07:08:14.927Z,-2.47
2018-02-06T07:09:14.916Z,-2.47
2018-02-06T07:10:14.906Z,-2.47
2018-02-06T07:11:14.894Z,-2.52
2018-02-06T07:12:14.881Z,-2.48
2018-02-06T07:13:14.874Z,-2.47
2018-02-06T07:14:14.858Z,-2.58
2018-02-06T07:15:14.854Z,-2.58
2018-02-06T07:16:14.834Z,-2.71
2018-02-06T07:17:14.824Z,-2.70
2018-02-06T07:18:14.811Z,-2.73
2018-02-06T07:19:14.800Z,-2.71
2018-02-06T07:20:14.792Z,-2.65
2018-02-06T07:21:14.776Z,-2.63
2018-02-06T07:22:14.764Z,-2.55
2018-02-06T07:23:14.753Z,-2.45
2018-02-06T07:24:14.742Z,-2.50
2018-02-06T07:25:14.728Z,-2.45
2018-02-06T07:26:14.718Z,-2.52
2018-02-06T07:27:14.708Z,-2.50
2018-02-06T07:28:14.694Z,-2.42
2018-02-06T07:29:14.684Z,-2.45
2018-02-06T07:30:14.672Z,-2.45
2018-02-06T07:31:14.661Z,-2.40
2018-02-06T07:32:14.647Z,-2.41
2018-02-06T07:33:14.636Z,-2.50
2018-02-06T07:34:14.624Z,-2.41
2018-02-06T07:35:14.614Z,-2.40
2018-02-06T07:36:14.601Z,-2.41
2018-02-06T07:37:14.591Z,-2.42
2018-02-06T07:38:14.578Z,-2.40
2018-02-06T07:39:14.566Z,-2.30
2018-02-06T07:40:14.557Z,-2.34
2018-02-06T07:41:14.544Z,-2.34
2018-02-06T07:42:14.532Z,-2.34
2018-02-06T07:43:14.520Z,-2.21
2018-02-06T07:44:14.511Z,-2.25
2018-02-06T07:45:14.496Z,-2.26
2018-02-06T07:46:14.484Z,-2.23
2018-02-06T07:47:14.474Z,-2.18
2018-02-06T07:48:14.462Z,-2.15
2018-02-06T07:49:14.462Z,-2.18
2018-02-06T07:50:14.439Z,-2.16
2018-02-06T07:51:14.429Z,-2.32
2018-02-06T07:52:14.416Z,-2.22
2018-02-06T07:53:14.404Z,-2.16
2018-02-06T07:54:14.393Z,-2.12
2018-02-06T07:55:14.381Z,-2.25
2018-02-06T07:56:14.368Z,-2.15
2018-02-06T07:57:14.360Z,-2.02
2018-02-06T07:58:14.346Z,-2.02
2018-02-06T07:59:14.335Z,-2.12
2018-02-06T08:00:14.323Z,-1.98
2018-02-06T08:01:14.312Z,-2.00
2018-02-06T08:02:14.302Z,-1.95
2018-02-06T08:03:14.288Z,-1.92
2018-02-06T08:04:14.276Z,-1.92
2018-02-06T08:05:14.266Z,-1.87
2018-02-06T08:06:14.256Z,-1.94
2018-02-06T08:07:14.242Z,-1.97
2018-02-06T08:08:14.231Z,-1.87
2018-02-06T08:09:14.219Z,-1.95
2018-02-06T08:10:14.208Z,-1.90
2018-02-06T08:11:14.197Z,-1.92
2018-02-06T08:12:14.187Z,-1.94
2018-02-06T08:13:14.174Z,-1.87
2018-02-06T08:14:14.162Z,-1.84
2018-02-06T08:15:14.151Z,-1.80
2018-02-06T08:16:14.140Z,-1.89
2018-02-06T08:17:14.128Z,-1.87
2018-02-06T08:18:14.116Z,-1.89
2018-02-06T08:19:14.105Z,-1.86
2018-02-06T08:20:14.094Z,-1.84
2018-02-06T08:21:14.082Z,-1.76
2018-02-06T08:22:14.075Z,-1.82
2018-02-06T08:23:14.086Z,-1.80
2018-02-06T08:24:14.048Z,-1.72
2018-02-06T08:25:14.037Z,-1.69
2018-02-06T08:26:14.027Z,-1.61
2018-02-06T08:27:14.016Z,-1.59
2018-02-06T08:28:14.006Z,-1.66
2018-02-06T08:29:13.991Z,-1.66
2018-02-06T08:30:13.982Z,-1.61
2018-02-06T08:31:13.981Z,-1.64
2018-02-06T08:32:13.959Z,-1.69
2018-02-06T08:33:13.947Z,-1.58
2018-02-06T08:34:13.937Z,-1.53
2018-02-06T08:35:13.924Z,-1.54
2018-02-06T08:36:13.913Z,-1.47
2018-02-06T08:37:13.904Z,-1.54
2018-02-06T08:38:13.892Z,-1.65
2018-02-06T08:39:13.881Z,-1.48
2018-02-06T08:40:13.870Z,-1.44
2018-02-06T08:41:13.858Z,-1.43
2018-02-06T08:42:13.851Z,-1.37
2018-02-06T08:43:13.837Z,-1.29
2018-02-06T08:44:13.825Z,-1.27
2018-02-06T08:45:13.814Z,-1.27
2018-02-06T08:46:13.804Z,-1.27
2018-02-06T08:47:13.793Z,-1.25
2018-02-06T08:48:13.780Z,-1.20
2018-02-06T08:49:13.771Z,-1.38
2018-02-06T08:50:13.761Z,-1.27
2018-02-06T08:51:13.749Z,-1.40
2018-02-06T08:52:13.738Z,-1.35
2018-02-06T08:53:13.726Z,-1.27
2018-02-06T08:54:13.715Z,-1.20
2018-02-06T08:55:13.706Z,-1.20
2018-02-06T08:56:13.692Z,-1.23
2018-02-06T08:57:13.683Z,-1.25
2018-02-06T08:58:13.673Z,-1.19
2018-02-06T08:59:13.667Z,-1.17
2018-02-06T09:00:13.650Z,-1.12
2018-02-06T09:01:13.639Z,-0.96
2018-02-06T09:02:13.629Z,-0.94
2018-02-06T09:03:13.619Z,-0.85
2018-02-06T09:04:13.615Z,-0.97
2018-02-06T09:05:13.596Z,-0.94
2018-02-06T09:06:13.586Z,-0.93
2018-02-06T09:07:13.596Z,-0.91
2018-02-06T09:08:13.562Z,-0.97
2018-02-06T09:09:13.553Z,-0.94
2018-02-06T09:10:13.543Z,-0.91
2018-02-06T09:11:13.537Z,-0.89
2018-02-06T09:12:13.522Z,-0.80
2018-02-06T09:13:13.510Z,-0.91
2018-02-06T09:14:13.504Z,-0.85
2018-02-06T09:15:13.488Z,-0.80
2018-02-06T09:16:13.479Z,-0.97
2018-02-06T09:17:13.470Z,-0.82
2018-02-06T09:18:13.458Z,-0.74
2018-02-06T09:19:13.448Z,-0.64
2018-02-06T09:20:13.436Z,-0.57
2018-02-06T09:21:13.426Z,-0.49
2018-02-06T09:22:13.415Z,-0.46
2018-02-06T09:23:13.404Z,-0.39
2018-02-06T09:24:13.394Z,-0.46
2018-02-06T09:25:13.384Z,-0.29
2018-02-06T09:26:13.375Z,-0.20
2018-02-06T09:27:13.364Z,-0.17
2018-02-06T09:28:13.352Z,-0.15
2018-02-06T09:29:13.343Z,-0.02
2018-02-06T09:30:13.335Z,0.05
2018-02-06T09:31:13.322Z,-0.03
2018-02-06T09:32:13.312Z,-0.14
2018-02-06T09:33:13.303Z,-0.03
2018-02-06T09:34:13.294Z,0.00
2018-02-06T09:35:13.282Z,-0.13
2018-02-06T09:36:13.272Z,0.03
2018-02-06T09:37:13.263Z,0.23
2018-02-06T09:38:13.252Z,0.31
2018-02-06T09:39:13.243Z,0.25
2018-02-06T09:40:13.234Z,0.16
2018-02-06T09:41:13.224Z,0.10
2018-02-06T09:42:13.213Z,0.22
2018-02-06T09:43:13.204Z,0.01
2018-02-06T09:44:13.200Z,0.15
2018-02-06T09:45:13.187Z,0.23
2018-02-06T09:46:13.176Z,0.25
2018-02-06T09:47:13.167Z,0.28
2018-02-06T09:48:13.156Z,0.22
2018-02-06T09:49:13.149Z,0.08
2018-02-06T09:50:13.138Z,-0.02
2018-02-06T09:51:13.130Z,-0.08
2018-02-06T09:52:13.119Z,-0.02
2018-02-06T09:53:13.149Z,0.03
2018-02-06T09:54:13.101Z,-0.07
2018-02-06T09:55:13.092Z,-0.02
2018-02-06T09:56:13.082Z,-0.14
2018-02-06T09:57:13.073Z,-0.07
2018-02-06T09:58:13.065Z,-0.07
2018-02-06T09:59:13.055Z,-0.15
2018-02-06T10:00:13.044Z,-0.13
2018-02-06T10:01:13.035Z,-0.13
2018-02-06T10:02:13.025Z,0.39
2018-02-06T10:03:13.017Z,0.59
2018-02-06T10:04:13.007Z,0.58
2018-02-06T10:05:12.997Z,0.44
2018-02-06T10:06:12.989Z,0.40
2018-02-06T10:07:12.979Z,0.49
2018-02-06T10:08:12.969Z,0.69
2018-02-06T10:09:12.960Z,0.68
2018-02-06T10:10:12.951Z,0.74
2018-02-06T10:11:12.943Z,0.76
2018-02-06T10:12:12.932Z,0.91
2018-02-06T10:13:12.923Z,0.98
2018-02-06T10:14:12.918Z,0.88
2018-02-06T10:15:12.937Z,0.96
2018-02-06T10:16:12.897Z,1.01
2018-02-06T10:17:12.887Z,1.31
2018-02-06T10:18:12.880Z,1.66
2018-02-06T10:19:12.871Z,2.08
2018-02-06T10:20:12.861Z,2.95
2018-02-06T10:21:12.855Z,2.47
2018-02-06T10:22:12.845Z,1.85
2018-02-06T10:23:12.836Z,1.81
2018-02-06T10:24:12.829Z,1.71
2018-02-06T10:25:12.822Z,1.67
2018-02-06T10:26:12.814Z,1.55
2018-02-06T10:27:12.807Z,1.55
2018-02-06T10:28:12.802Z,1.49
2018-02-06T10:29:12.794Z,1.53
2018-02-06T10:30:12.786Z,1.56
2018-02-06T10:31:12.779Z,1.50
2018-02-06T10:32:12.774Z,1.26
2018-02-06T10:33:12.764Z,1.17
2018-02-06T10:34:12.756Z,0.91
2018-02-06T10:35:12.757Z,1.05
2018-02-06T10:36:12.743Z,1.08
2018-02-06T10:37:12.735Z,0.98
2018-02-06T10:38:12.728Z,1.01
2018-02-06T10:39:12.722Z,0.98
2018-02-06T10:40:12.714Z,1.04
2018-02-06T10:41:12.706Z,1.17
2018-02-06T10:42:12.702Z,1.24
2018-02-06T10:43:12.691Z,1.12
2018-02-06T10:44:12.684Z,0.94
2018-02-06T10:45:12.675Z,0.70
2018-02-06T10:46:12.668Z,0.87
2018-02-06T10:47:12.661Z,0.59
2018-02-06T10:48:12.653Z,0.83
2018-02-06T10:49:12.646Z,0.95
2018-02-06T10:50:12.638Z,1.06
2018-02-06T10:51:12.632Z,1.20
2018-02-06T10:52:12.622Z,1.35
2018-02-06T10:53:12.620Z,1.56
2018-02-06T10:54:12.609Z,1.62
2018-02-06T10:55:12.599Z,1.71
2018-02-06T10:56:12.591Z,1.53
2018-02-06T10:57:12.586Z,1.38
2018-02-06T10:58:12.577Z,1.42
2018-02-06T10:59:12.570Z,1.56
2018-02-06T11:00:12.561Z,1.48
2018-02-06T11:01:12.554Z,1.52
2018-02-06T11:02:12.546Z,1.50
2018-02-06T11:03:12.544Z,1.41
2018-02-06T11:04:12.530Z,1.34
2018-02-06T11:05:12.522Z,1.52
2018-02-06T11:06:12.517Z,1.55
2018-02-06T11:07:12.508Z,1.87
2018-02-06T11:08:12.501Z,1.78
2018-02-06T11:09:12.493Z,1.67
2018-02-06T11:10:12.486Z,1.80
2018-02-06T11:11:12.480Z,2.20
2018-02-06T11:12:12.472Z,2.11
2018-02-06T11:13:12.464Z,2.43
2018-02-06T11:14:12.457Z,2.47
2018-02-06T11:15:12.449Z,2.65
2018-02-06T11:16:12.444Z,2.49
2018-02-06T11:17:12.435Z,2.68
2018-02-06T11:18:12.428Z,3.04
2018-02-06T11:19:12.422Z,2.77
2018-02-06T11:20:12.415Z,2.50
2018-02-06T11:21:12.408Z,2.43
2018-02-06T11:22:12.402Z,2.17
2018-02-06T11:23:12.394Z,2.22
2018-02-06T11:24:12.388Z,2.39
2018-02-06T11:25:12.384Z,2.06
2018-02-06T11:26:12.375Z,2.07
2018-02-06T11:27:12.370Z,2.31
2018-02-06T11:28:12.361Z,2.51
2018-02-06T11:29:12.355Z,2.85
2018-02-06T11:30:12.350Z,2.98
2018-02-06T11:31:12.344Z,2.43
2018-02-06T11:32:12.336Z,2.68
2018-02-06T11:33:12.329Z,2.51
2018-02-06T11:34:12.323Z,2.47
2018-02-06T11:35:12.317Z,2.57
2018-02-06T11:36:12.309Z,2.56
2018-02-06T11:37:12.304Z,2.20
2018-02-06T11:38:12.341Z,2.10
2018-02-06T11:39:12.291Z,2.22
2018-02-06T11:40:12.283Z,2.29
2018-02-06T11:41:12.278Z,2.46
2018-02-06T11:42:12.272Z,2.50
2018-02-06T11:43:12.265Z,2.62
2018-02-06T11:44:12.258Z,2.64
2018-02-06T11:45:12.252Z,2.61
2018-02-06T11:46:12.248Z,2.18
2018-02-06T11:47:12.238Z,1.87
2018-02-06T11:48:12.235Z,1.81
2018-02-06T11:49:12.228Z,1.94
2018-02-06T11:50:12.219Z,2.20
2018-02-06T11:51:12.248Z,2.17
2018-02-06T11:52:12.206Z,2.33
2018-02-06T11:53:12.200Z,2.44
2018-02-06T11:54:12.193Z,2.47
2018-02-06T11:55:12.187Z,2.64
2018-02-06T11:56:12.184Z,2.95
2018-02-06T11:57:12.173Z,2.97
2018-02-06T11:58:12.166Z,3.16
2018-02-06T11:59:12.162Z,3.16
2018-02-06T12:00:12.153Z,3.19
2018-02-06T12:01:12.147Z,3.18
2018-02-06T12:02:12.144Z,3.07
2018-02-06T12:03:12.139Z,3.05
2018-02-06T12:04:12.127Z,3.08
2018-02-06T12:05:12.120Z,3.10
2018-02-06T12:06:12.115Z,3.21
2018-02-06T12:07:12.109Z,2.64
2018-02-06T12:08:12.102Z,2.26
2018-02-06T12:09:12.095Z,2.32
2018-02-06T12:10:12.090Z,2.44
2018-02-06T12:11:12.083Z,2.49
2018-02-06T12:12:12.075Z,2.46
2018-02-06T12:13:12.070Z,2.29
2018-02-06T12:14:12.063Z,2.39
2018-02-06T12:15:12.056Z,2.00
2018-02-06T12:16:12.053Z,1.74
2018-02-06T12:17:12.064Z,1.94
2018-02-06T12:18:12.037Z,1.91
2018-02-06T12:19:12.031Z,1.95
2018-02-06T12:20:12.024Z,2.07
2018-02-06T12:21:12.017Z,2.13
2018-02-06T12:22:12.011Z,2.18
2018-02-06T12:23:12.006Z,2.15
2018-02-06T12:24:11.997Z,2.31
2018-02-06T12:25:11.989Z,2.26
2018-02-06T12:26:11.983Z,2.35
2018-02-06T12:27:11.976Z,2.38
2018-02-06T12:28:11.968Z,2.36
2018-02-06T12:29:11.966Z,2.31
2018-02-06T12:30:11.956Z,2.08
2018-02-06T12:31:11.950Z,1.91
2018-02-06T12:32:11.940Z,1.77
2018-02-06T12:33:11.936Z,1.95
2018-02-06T12:34:11.928Z,1.97
2018-02-06T12:35:11.921Z,2.02
2018-02-06T12:36:11.913Z,2.04
2018-02-06T12:37:11.907Z,2.07
2018-02-06T12:38:11.899Z,2.06
2018-02-06T12:39:11.892Z,2.22
2018-02-06T12:40:11.884Z,1.84
2018-02-06T12:41:11.882Z,1.85
2018-02-06T12:42:11.871Z,1.92
2018-02-06T12:43:11.864Z,1.84
2018-02-06T12:44:11.856Z,1.71
2018-02-06T12:45:11.850Z,1.80
2018-02-06T12:46:11.843Z,1.85
2018-02-06T12:47:11.836Z,1.70
2018-02-06T12:48:11.827Z,1.60
2018-02-06T12:49:11.820Z,1.78
2018-02-06T12:50:11.813Z,1.88
2018-02-06T12:51:11.806Z,2.11
2018-02-06T12:52:11.798Z,2.17
2018-02-06T12:53:11.791Z,2.24
2018-02-06T12:54:11.788Z,2.26
2018-02-06T12:55:11.777Z,2.17
2018-02-06T12:56:11.769Z,2.20
2018-02-06T12:57:11.762Z,2.07
2018-02-06T12:58:11.755Z,1.97
2018-02-06T12:59:11.748Z,2.11
2018-02-06T13:00:11.741Z,2.06
2018-02-06T13:01:11.732Z,2.06
2018-02-06T13:02:11.725Z,2.11
2018-02-06T13:03:11.738Z,2.06
2018-02-06T13:04:11.710Z,2.20
2018-02-06T13:05:11.706Z,2.28
2018-02-06T13:06:11.696Z,2.13
2018-02-06T13:07:11.688Z,2.13
2018-02-06T13:08:11.681Z,2.13
2018-02-06T13:09:11.672Z,2.18
2018-02-06T13:10:11.665Z,2.13
2018-02-06T13:11:11.657Z,2.18
2018-02-06T13:12:11.651Z,2.29
2018-02-06T13:13:11.642Z,2.33
2018-02-06T13:14:11.635Z,2.29
2018-02-06T13:15:11.627Z,2.33
2018-02-06T13:16:11.620Z,2.36
2018-02-06T13:17:11.612Z,2.31
2018-02-06T13:18:11.605Z,2.15
2018-02-06T13:19:11.598Z,2.13
2018-02-06T13:20:11.596Z,2.14
2018-02-06T13:21:11.584Z,2.02
2018-02-06T13:22:11.577Z,1.94
2018-02-06T13:23:11.570Z,1.85
2018-02-06T13:24:11.561Z,1.59
2018-02-06T13:25:11.553Z,1.42
2018-02-06T13:26:11.546Z,1.48
2018-02-06T13:27:11.540Z,1.45
2018-02-06T13:28:11.530Z,1.42
2018-02-06T13:29:11.523Z,1.53
2018-02-06T13:30:11.516Z,1.44
2018-02-06T13:31:11.507Z,1.56
2018-02-06T13:32:11.502Z,1.52
2018-02-06T13:33:11.493Z,1.59
2018-02-06T13:34:11.486Z,1.60
2018-02-06T13:35:11.477Z,1.50
2018-02-06T13:36:11.469Z,1.56
2018-02-06T13:37:11.462Z,1.50
2018-02-06T13:38:11.454Z,1.52
2018-02-06T13:39:11.452Z,1.50
2018-02-06T13:40:11.439Z,1.30
2018-02-06T13:41:11.431Z,1.20
2018-02-06T13:42:11.424Z,1.26
2018-02-06T13:43:11.416Z,1.34
2018-02-06T13:44:11.407Z,1.22
2018-02-06T13:45:11.401Z,1.30
2018-02-06T13:46:11.393Z,1.35
2018-02-06T13:47:11.385Z,1.32
2018-02-06T13:48:11.376Z,1.35
2018-02-06T13:49:11.368Z,1.40
2018-02-06T13:50:11.361Z,1.30
2018-02-06T13:51:11.353Z,1.37
2018-02-06T13:52:11.344Z,1.22
2018-02-06T13:53:11.335Z,1.14
2018-02-06T13:54:11.328Z,1.08
2018-02-06T13:55:11.320Z,1.30
2018-02-06T13:56:11.314Z,1.32
2018-02-06T13:57:11.304Z,1.40
2018-02-06T13:58:11.297Z,1.37
2018-02-06T13:59:11.289Z,1.44
2018-02-06T14:00:11.281Z,1.49
2018-02-06T14:01:11.272Z,1.52
2018-02-06T14:02:11.265Z,1.49
2018-02-06T14:03:11.256Z,1.52
2018-02-06T14:04:11.247Z,1.48
2018-02-06T14:05:11.240Z,1.55
2018-02-06T14:06:11.232Z,1.45
2018-02-06T14:07:11.223Z,1.37
2018-02-06T14:08:11.214Z,1.35
2018-02-06T14:09:11.206Z,1.40
2018-02-06T14:10:11.199Z,1.32
2018-02-06T14:11:11.191Z,1.44
2018-02-06T14:12:11.183Z,1.53
2018-02-06T14:13:11.174Z,1.38
2018-02-06T14:14:11.166Z,1.42
2018-02-06T14:15:11.158Z,1.17
2018-02-06T14:16:11.149Z,1.23
2018-02-06T14:17:11.141Z,1.08
2018-02-06T14:18:11.137Z,1.01
2018-02-06T14:19:11.125Z,1.05
2018-02-06T14:20:11.118Z,1.12
2018-02-06T14:21:11.110Z,1.01
2018-02-06T14:22:11.102Z,0.88
2018-02-06T14:23:11.092Z,0.83
2018-02-06T14:24:11.085Z,0.87
2018-02-06T14:25:11.075Z,0.95
2018-02-06T14:26:11.067Z,1.08
2018-02-06T14:27:11.060Z,1.12
2018-02-06T14:28:11.050Z,1.08
2018-02-06T14:29:11.042Z,1.13
2018-02-06T14:30:11.035Z,1.12
2018-02-06T14:31:11.025Z,1.17
2018-02-06T14:32:11.017Z,1.17
2018-02-06T14:33:11.009Z,1.14
2018-02-06T14:34:11.000Z,1.14
2018-02-06T14:35:10.991Z,1.13
2018-02-06T14:36:10.983Z,1.13
2018-02-06T14:37:10.974Z,1.06
2018-02-06T14:38:10.966Z,0.91
2018-02-06T14:39:10.958Z,1.02
2018-02-06T14:40:10.950Z,0.98
2018-02-06T14:41:10.942Z,0.98
2018-02-06T14:42:10.945Z,0.98
2018-02-06T14:43:10.924Z,1.02
2018-02-06T14:44:10.914Z,1.02
2018-02-06T14:45:10.906Z,1.08
2018-02-06T14:46:10.899Z,0.92
2018-02-06T14:47:10.891Z,0.99
2018-02-06T14:48:10.881Z,1.06
2018-02-06T14:49:10.873Z,1.30
2018-02-06T14:50:10.865Z,1.42
2018-02-06T14:51:10.855Z,1.26
2018-02-06T14:52:10.846Z,1.37
2018-02-06T14:53:10.839Z,1.42
2018-02-06T14:54:10.830Z,1.24
2018-02-06T14:55:10.821Z,1.28
2018-02-06T14:56:10.811Z,1.23
2018-02-06T14:57:10.803Z,1.32
2018-02-06T14:58:10.796Z,1.38
2018-02-06T14:59:10.788Z,1.44